Kezdőlap
METAR-TAF:

METAR-TAF

Repülőterek :

Dzsidda, Szaúd-Arábia

földrajzi szélesség: 21-42N, földrajzi hosszúság: 039-11E, magasság: 15 m

Jelenlegi meteorológiai megfigyelések

A jelentés 9 perccel ezelõtt készült, 16:00 UTC
Északnyugati szél 7 kt
Hőmérséklet 36°C
Páratartalom 25%
Légköri nyomás 1002 hPa
Látótávolság 10 km, vagy több
felhőtlen 1500 m magasságban, és nincs gomolyfelhõ

METAR: OEJN 181600Z 31007KT CAVOK 36/13 Q1002 NOSIG

Idő: 19:09 (16:09 UTC)

Előrejelzés

A jelentés 5 órával és 9 perccel ezelõtt készült, 11:00 UTC
Az előrejelzés 18-én 12 óra UTC és 19-én 18 óra UTC között érvényes
Nyugat-északnyugati szél 6 kt széllökések: 16 kt
Látótávolság: 7000 m
18-én 18 óra UTC és 18-én 20 óra UTC között fokozatosan kialakuló
Különbözõ irányokból fújó szél 3 kt

TAF: OEJN 181100Z 1812/1918 30006G16KT 7000 NSC BECMG 1818/1820 VRB03KT

Meteorológiai megfigyelések és előrejelzések több, mint 4000 repülőtéren (METAR és TAF jelentéseket).

A térképen piros és sárga pontok jelzik az elérhető meteorológiai állomásokat.

Mozgassa az egeret a pont fölött, hogy megjelenjen az állomás neve.

Azután kattintson az időjárási megfigyelések és előrejelzések megtekintéséhez.

A térkép megváltoztatása: kattintson a fekete keresztel jelölt zöld gombra ráközelítéshez, a vonallal jelölt zöld gombra távolításhoz, vagy a zöld nyilakra a szomszédos térképek eléréséhez.


METAR-TAF: